Portada
METAR-TAF:

METAR-TAF

Aeroports :

Mary, Turkmenistan

latitud: 37-36-24N, longitud: 061-54-05E, altitud: 222 m

Observació

L'informe es va fer fa 49 minuts, a les 05:00 UTC
Vent 4 kt del Oest/Nord-Oest
Temperatura 33°C
Humitat 20%
Pressió 1008 hPa
Visibilitat: 6000 m

METAR: UTAM 260500Z 29004KT 6000 NSC 33/07 Q1008 NOSIG

Hora: 10:49 (05:49 UTC)

Pronòstic

L'informe es va fer fa 1 hora i 19 minuts, a les 04:30 UTC
Pronòstic vàlid del 26 a les 06 UTC al 27 a les 06 UTC
Vent 14 kt del Nord/Nord-Oest
Visibilitat: 6000 m
Temporalment
l' 26 a les 06 UTC al 26 a les 09 UTC
Vent 14 kt del Oest/Nord-Oest
Temporalment
l' 26 a les 09 UTC al 26 a les 13 UTC
Vent 12 kt del Nord/Nord-Est amb ràfegues de 22 kt
Visibilitat: 3000 m
torb baixa de pols
Evolucionant progressivament
l' 26 a les 15 UTC al 26 a les 16 UTC
Vent 12 kt del Nord

TAF: UTAM 260430Z 2606/2706 34014KT 6000 NSC TX40/2610Z 530009 TEMPO 2606/2609 30014KT TEMPO 2609/2613 02012G22KT 3000 DRDU BECMG 2615/2616 35012KT

Observacions i pronòstics meteorològics de més de 4000 aeroports (METAR i TAF).

Les estacions disponibles són els punts grocs i vermells al mapa.

Posi el ratolí al punt desitjat per veure el nom de l'estació.

Feu clic per veure les observacions i els pronòstics meteorològics.

Per canviar el mapa: feu clic els botons verds amb una creu de color negre per apropar; al botó verd amb un guió per allunyar la imatge; o en les fletxes verdes per a mapes adjacents.


METAR-TAF: